Flight Briefing for CPX812

Departure Arrival
Bucholz AAF Airport (PKWA)
Click to view FAA NOTAMS
Daniel K Inouye International Airport (PHNL)
Click to view FAA NOTAMS
Departure Time Arrival Time
N/A N/A
Aircraft Distance
B757-200SF 2127nm
Departure METAR Arrival METAR
PKWA 180700Z AUTO 08020G27KT 7SM SCT010 BKN017 BKN022 26/26 A2978 RMK AO2 T02610260 PHNL 180653Z 33005KT 10SM FEW020 FEW080 20/17 A2997 RMK AO2 SLP148 T02000167
Suggested Route
NDJ 1130N/17200E MANRE R584 MCFLY R584 CHOKO


View recent IFR Routes data
Notes
USTRANSCOM CONTRACT FLIGHT

Charts and Procedures

Charts for PKWA
No chart available
Charts for PHNL
No chart available

Ventusky Weather